Time;durP1;ratioP1;P1;durP2;ratioP2;P2;SDS_P1;SDS_P2;PMS_P1;PMS_P2;Temp;Humidity;BMP_temperature;BMP_pressure;BME280_temperature;BME280_humidity;BME280_pressure;Samples;Min_cycle;Max_cycle;Signal;HPM_P1;HPM_P2
2022/06/22 00:00:21;;;;;;;2.65;1.23;;;;;;;15.90;67.17;101049.75;5041423;28;20044;-77
2022/06/22 00:02:52;;;;;;;3.42;1.30;;;;;;;15.83;67.55;101048.88;5019172;28;20036;-76
2022/06/22 00:05:23;;;;;;;4.30;1.10;;;;;;;15.76;67.73;101043.56;5039477;28;20561;-77
2022/06/22 00:07:55;;;;;;;2.45;1.30;;;;;;;15.71;67.78;101030.22;5049772;28;20444;-77
2022/06/22 00:10:29;;;;;;;4.00;1.37;;;;;;;15.64;68.20;101017.06;5024943;28;20025;-77
2022/06/22 00:12:57;;;;;;;4.90;1.33;;;;;;;15.61;68.11;101021.84;5038747;28;20460;-77
2022/06/22 00:15:29;;;;;;;1.50;1.08;;;;;;;15.53;68.45;101030.59;5040249;28;20421;-77
2022/06/22 00:17:55;;;;;;;3.83;1.13;;;;;;;15.49;68.72;101026.75;5037500;28;20102;-76
2022/06/22 00:20:27;;;;;;;2.30;1.17;;;;;;;15.43;68.89;101043.16;5041602;28;20037;-76
2022/06/22 00:23:19;;;;;;;3.80;1.45;;;;;;;15.35;69.08;101042.25;5039304;28;20104;-77
2022/06/22 00:25:46;;;;;;;3.08;1.50;;;;;;;15.28;69.17;101040.56;5031989;28;20079;-76
2022/06/22 00:28:34;;;;;;;4.75;1.30;;;;;;;15.24;69.06;101027.03;5045566;28;20036;-77
2022/06/22 00:31:25;;;;;;;5.32;2.28;;;;;;;15.23;69.21;101022.00;5039835;28;20103;-77
2022/06/22 00:34:08;;;;;;;3.97;1.60;;;;;;;15.21;69.23;101019.56;5039065;28;20089;-77
2022/06/22 00:36:47;;;;;;;3.17;1.40;;;;;;;15.20;69.28;101031.00;5037090;28;20037;-77
2022/06/22 00:39:15;;;;;;;4.80;1.95;;;;;;;15.19;69.42;101021.53;5042184;28;20033;-76
2022/06/22 00:41:44;;;;;;;4.03;1.45;;;;;;;15.17;69.60;101029.56;5019219;28;20035;-77
2022/06/22 00:44:13;;;;;;;4.60;1.27;;;;;;;15.15;69.84;101039.38;5039350;28;20450;-76
2022/06/22 00:46:43;;;;;;;2.78;1.30;;;;;;;15.12;70.11;101036.31;5038289;28;20041;-76
2022/06/22 00:49:17;;;;;;;5.82;1.50;;;;;;;15.08;69.97;101022.00;5040656;28;20040;-78
2022/06/22 00:51:43;;;;;;;4.63;1.60;;;;;;;15.05;70.05;101027.56;5036767;28;20147;-77
2022/06/22 00:54:16;;;;;;;4.22;1.48;;;;;;;15.01;69.83;101015.88;5039741;28;20033;-77
2022/06/22 00:56:41;;;;;;;5.13;2.22;;;;;;;14.99;70.09;101013.41;5042249;28;20043;-77
2022/06/22 00:59:20;;;;;;;5.60;1.85;;;;;;;14.94;70.27;101019.19;5041865;28;20029;-77
2022/06/22 01:02:08;;;;;;;6.10;2.00;;;;;;;14.88;70.74;101013.88;5038548;28;20033;-77
2022/06/22 01:04:51;;;;;;;4.07;1.52;;;;;;;14.80;71.10;101017.38;5040771;28;20047;-77
2022/06/22 01:07:41;;;;;;;7.93;1.50;;;;;;;14.70;71.60;101001.97;5042810;28;20035;-77
2022/06/22 01:10:29;;;;;;;2.67;1.45;;;;;;;14.57;72.34;100991.34;5042237;28;20029;-77
2022/06/22 01:13:01;;;;;;;4.72;1.50;;;;;;;14.52;72.31;100993.63;5040579;28;20033;-77
2022/06/22 01:15:39;;;;;;;8.23;1.38;;;;;;;14.35;72.98;100998.19;5037563;28;20041;-77
2022/06/22 01:18:13;;;;;;;3.83;1.35;;;;;;;14.20;73.70;100995.53;5037879;28;20037;-77
2022/06/22 01:20:53;;;;;;;4.95;1.52;;;;;;;14.12;73.93;100991.19;5039907;28;20100;-76
2022/06/22 01:23:51;;;;;;;5.88;1.85;;;;;;;14.05;74.09;100985.03;5035949;28;20041;-76
2022/06/22 01:26:38;;;;;;;6.30;1.48;;;;;;;14.06;74.05;100983.25;5014862;28;20056;-77
2022/06/22 01:29:13;;;;;;;4.28;1.67;;;;;;;14.09;73.88;100986.34;5056160;28;20040;-76
2022/06/22 01:32:04;;;;;;;2.17;1.30;;;;;;;14.10;73.90;100998.38;5048382;28;20474;-75
2022/06/22 01:34:41;;;;;;;5.35;2.15;;;;;;;14.11;73.68;101009.59;5035412;28;20087;-77
2022/06/22 01:37:13;;;;;;;2.60;1.50;;;;;;;14.08;73.84;100997.75;5019949;28;20036;-77
2022/06/22 01:39:39;;;;;;;5.95;3.28;;;;;;;14.07;73.59;100995.28;5036321;28;20072;-76
2022/06/22 01:42:21;;;;;;;4.80;2.20;;;;;;;14.05;74.06;101000.69;5038059;28;20064;-77
2022/06/22 01:44:58;;;;;;;5.03;2.00;;;;;;;14.05;73.68;100992.06;5039160;28;20040;-76
2022/06/22 01:47:31;;;;;;;3.13;2.10;;;;;;;14.04;73.82;100988.66;5050228;28;20441;-77
2022/06/22 01:50:13;;;;;;;5.53;2.33;;;;;;;14.01;74.01;100992.41;5037995;28;20029;-77
2022/06/22 01:52:47;;;;;;;5.88;1.83;;;;;;;14.01;74.11;100989.81;5027290;28;20123;-77
2022/06/22 01:55:35;;;;;;;4.55;2.20;;;;;;;14.00;74.12;100987.38;5037226;28;20037;-76
2022/06/22 01:58:25;;;;;;;4.90;1.90;;;;;;;13.99;73.96;100983.97;5052104;28;20025;-76
2022/06/22 02:01:15;;;;;;;6.18;2.30;;;;;;;13.97;74.09;100985.09;5033865;28;20044;-76
2022/06/22 02:03:50;;;;;;;4.72;2.20;;;;;;;13.96;74.14;100975.69;5037314;28;20037;-77
2022/06/22 02:09:15;;;;;;;4.88;2.00;;;;;;;13.92;74.18;100987.41;5041453;28;20116;-77
2022/06/22 02:11:48;;;;;;;5.15;2.53;;;;;;;13.86;74.61;100988.13;5038549;28;20037;-77
2022/06/22 02:14:19;;;;;;;;;;;;;;;13.80;75.30;100994.81;5038704;28;20603;-76
2022/06/22 02:16:54;;;;;;;7.72;2.33;;;;;;;13.71;75.75;100999.28;5037751;28;20292;-77
2022/06/22 02:19:20;;;;;;;4.53;2.13;;;;;;;13.61;76.72;100996.88;5037113;28;20071;-76
2022/06/22 02:21:54;;;;;;;4.38;1.95;;;;;;;13.60;76.77;100995.28;5040056;28;20488;-77
2022/06/22 02:24:32;;;;;;;3.53;2.10;;;;;;;13.62;76.68;101001.13;5035465;28;20033;-77
2022/06/22 02:26:59;;;;;;;6.20;2.25;;;;;;;13.64;76.51;100987.94;5036951;28;20599;-77
2022/06/22 02:29:34;;;;;;;2.58;1.90;;;;;;;13.64;76.38;100990.53;5045326;28;20149;-77
2022/06/22 02:32:03;;;;;;;4.57;1.80;;;;;;;13.63;76.33;100979.28;5039474;28;20567;-77
2022/06/22 02:34:31;;;;;;;7.38;2.08;;;;;;;13.62;76.32;100975.06;5036620;28;20120;-77
2022/06/22 02:37:00;;;;;;;4.75;1.95;;;;;;;13.50;76.51;100966.00;5037826;28;20083;-77
2022/06/22 02:39:29;;;;;;;3.97;1.95;;;;;;;13.42;76.91;100966.06;5037062;28;20481;-77
2022/06/22 02:44:44;;;;;;;5.40;2.35;;;;;;;13.37;76.94;100976.16;5038895;28;20115;-77
2022/06/22 02:47:16;;;;;;;7.28;2.90;;;;;;;13.36;76.94;100967.53;5023967;28;20532;-77
2022/06/22 02:49:48;;;;;;;4.75;2.40;;;;;;;13.38;76.84;100983.81;5023858;28;20041;-77
2022/06/22 02:52:15;;;;;;;5.65;3.17;;;;;;;13.37;76.80;100990.00;5039840;28;20049;-77
2022/06/22 02:54:59;;;;;;;7.55;2.72;;;;;;;13.36;76.96;101004.00;5037490;28;20037;-77
2022/06/22 02:57:55;;;;;;;4.28;2.20;;;;;;;13.24;78.08;101010.50;5036792;28;20046;-77
2022/06/22 03:00:24;;;;;;;5.25;2.72;;;;;;;13.19;78.13;101002.41;5025775;28;20051;-77
2022/06/22 03:02:53;;;;;;;4.78;2.58;;;;;;;13.17;78.86;101004.38;5040229;28;20033;-77
2022/06/22 03:05:19;;;;;;;4.45;2.22;;;;;;;13.14;78.53;100982.06;5036692;28;20496;-77
2022/06/22 03:07:50;;;;;;;4.10;2.17;;;;;;;13.13;78.34;100972.66;5038775;28;20465;-77
2022/06/22 03:10:42;;;;;;;5.10;2.20;;;;;;;13.11;78.55;100972.03;5039973;28;20037;-77
2022/06/22 03:13:15;;;;;;;4.65;2.15;;;;;;;12.96;78.24;100958.88;5037490;28;20034;-77
2022/06/22 03:15:41;;;;;;;4.15;2.75;;;;;;;12.84;78.38;100965.41;5038061;28;20131;-76
2022/06/22 03:18:13;;;;;;;3.38;2.20;;;;;;;12.82;78.61;100972.56;5019738;28;20441;-77
2022/06/22 03:20:45;;;;;;;5.80;2.80;;;;;;;12.84;78.47;100970.63;5036170;28;20415;-77
2022/06/22 03:23:23;;;;;;;6.40;2.45;;;;;;;12.87;78.52;100961.69;5038342;28;20394;-77
2022/06/22 03:26:12;;;;;;;5.57;2.65;;;;;;;12.89;78.56;100967.53;5039323;28;20048;-77
2022/06/22 03:28:43;;;;;;;7.40;2.40;;;;;;;12.87;78.62;100962.50;5038247;28;21319;-76
2022/06/22 03:31:16;;;;;;;6.45;3.15;;;;;;;12.86;78.69;100950.44;5041310;28;20024;-77
2022/06/22 03:33:48;;;;;;;9.02;3.33;;;;;;;12.89;78.69;100950.13;5039247;28;20071;-76
2022/06/22 03:36:36;;;;;;;7.63;3.22;;;;;;;12.91;78.58;100952.56;5036279;28;20064;-77
2022/06/22 03:39:07;;;;;;;5.70;2.95;;;;;;;12.93;78.25;100948.81;5038627;28;20064;-77
2022/06/22 03:41:39;;;;;;;5.07;3.10;;;;;;;12.93;78.22;100946.19;5035799;28;20367;-77
2022/06/22 03:44:15;;;;;;;6.80;2.78;;;;;;;12.94;78.21;100942.63;5022805;28;20524;-77
2022/06/22 03:47:13;;;;;;;7.10;3.47;;;;;;;12.96;78.41;100945.88;5035747;28;20044;-76
2022/06/22 03:49:59;;;;;;;6.28;3.20;;;;;;;12.97;78.41;100949.28;5034714;28;20106;-77
2022/06/22 03:52:47;;;;;;;8.50;3.45;;;;;;;12.96;78.66;100943.28;5035796;28;20076;-76
2022/06/22 03:55:17;;;;;;;8.18;3.83;;;;;;;12.99;79.09;100952.53;5037161;28;20041;-77
2022/06/22 03:57:49;;;;;;;6.03;3.90;;;;;;;12.97;79.46;100954.47;5035564;28;20029;-77
2022/06/22 04:00:16;;;;;;;5.25;3.88;;;;;;;13.00;78.93;100959.38;5037550;28;20033;-76
2022/06/22 04:02:42;;;;;;;8.43;3.67;;;;;;;13.02;79.04;100960.81;5036265;28;20033;-77
2022/06/22 04:05:18;;;;;;;7.72;3.47;;;;;;;13.04;79.57;100966.66;5016080;28;20131;-76
2022/06/22 04:07:45;;;;;;;5.97;3.90;;;;;;;13.05;79.82;100968.28;5035561;28;20360;-76
2022/06/22 04:10:38;;;;;;;5.88;3.45;;;;;;;13.07;80.07;100969.91;5034391;28;20056;-77
2022/06/22 04:13:14;;;;;;;8.95;3.25;;;;;;;13.11;79.41;100968.59;5035353;28;20441;-77
2022/06/22 04:15:49;;;;;;;7.60;2.97;;;;;;;13.17;79.60;100973.13;5034609;28;20044;-77
2022/06/22 04:18:18;;;;;;;5.82;3.25;;;;;;;13.19;79.46;100969.38;5036727;28;20033;-77
2022/06/22 04:20:50;;;;;;;4.75;2.78;;;;;;;13.24;79.82;100968.84;5037837;28;20501;-76
2022/06/22 04:23:23;;;;;;;4.32;2.92;;;;;;;13.28;79.86;100964.97;5027523;28;20076;-77
2022/06/22 04:25:50;;;;;;;5.07;3.03;;;;;;;13.31;80.01;100958.63;5037013;28;20051;-76
2022/06/22 04:28:16;;;;;;;6.90;3.25;;;;;;;13.35;80.26;100975.53;5038487;28;20060;-77
2022/06/22 04:30:47;;;;;;;12.85;3.85;;;;;;;13.40;80.37;100973.22;5046009;28;20094;-77
2022/06/22 04:33:20;;;;;;;10.70;4.40;;;;;;;13.44;80.70;100982.31;5036630;28;20741;-77
2022/06/22 04:36:07;;;;;;;6.10;2.85;;;;;;;13.44;80.69;100982.31;5036119;28;20041;-77
2022/06/22 04:38:35;;;;;;;7.28;3.50;;;;;;;13.44;80.76;100988.34;5036948;28;20025;-77
2022/06/22 04:41:21;;;;;;;6.13;3.58;;;;;;;13.46;80.91;100989.97;5020053;28;20036;-76
2022/06/22 04:43:47;;;;;;;5.68;3.42;;;;;;;13.47;80.66;100996.78;5043932;28;20064;-77
2022/06/22 04:46:20;;;;;;;4.65;3.35;;;;;;;13.49;80.24;100998.25;5040009;28;20064;-76
2022/06/22 04:48:47;;;;;;;5.65;3.30;;;;;;;13.53;79.87;100994.31;5038338;28;20037;-77
2022/06/22 04:51:19;;;;;;;6.00;2.83;;;;;;;13.56;79.97;100990.56;5034673;28;20112;-77
2022/06/22 04:53:56;;;;;;;10.48;3.72;;;;;;;13.61;79.69;100994.28;5023079;28;20508;-77
2022/06/22 04:56:38;;;;;;;6.93;3.67;;;;;;;13.67;79.61;100984.97;5042767;28;20490;-76
2022/06/22 04:59:06;;;;;;;7.47;3.40;;;;;;;13.73;79.57;100971.25;5035983;28;20455;-76
2022/06/22 05:01:44;;;;;;;7.38;4.00;;;;;;;13.80;79.77;100979.19;5033673;28;20460;-77
2022/06/22 05:04:33;;;;;;;5.57;3.53;;;;;;;13.87;79.57;100982.72;5035931;28;20080;-77
2022/06/22 05:07:16;;;;;;;7.40;4.28;;;;;;;13.98;79.27;100989.34;5019824;28;20033;-77
2022/06/22 05:09:49;;;;;;;6.05;3.33;;;;;;;14.10;78.83;100994.97;5047020;28;20045;-77
2022/06/22 05:12:22;;;;;;;5.47;3.40;;;;;;;14.21;78.35;101000.56;5032212;28;20069;-77
2022/06/22 05:14:50;;;;;;;6.90;3.50;;;;;;;14.35;78.03;100998.19;5035901;28;20029;-77
2022/06/22 05:17:36;;;;;;;7.93;4.25;;;;;;;14.49;77.90;101007.06;5040076;28;20037;-77
2022/06/22 05:20:10;;;;;;;6.95;3.45;;;;;;;14.63;77.50;100997.66;5048915;28;20067;-76
2022/06/22 05:22:36;;;;;;;8.15;4.63;;;;;;;14.79;77.15;101002.72;5040585;28;20037;-76
2022/06/22 05:25:05;;;;;;;9.38;4.55;;;;;;;14.95;76.54;101001.72;5036659;28;20044;-76
2022/06/22 05:27:58;;;;;;;7.72;4.20;;;;;;;15.17;76.18;101000.81;5036809;28;20064;-76
2022/06/22 05:30:24;;;;;;;10.18;4.28;;;;;;;15.38;75.61;101000.06;5038826;28;20095;-76
2022/06/22 05:32:58;;;;;;;12.23;4.72;;;;;;;15.58;74.18;101000.31;5036598;28;20030;-76
2022/06/22 05:35:34;;;;;;;5.93;3.80;;;;;;;15.79;73.18;100995.34;5046857;28;20048;-76
2022/06/22 05:38:02;;;;;;;8.20;4.18;;;;;;;15.98;72.22;100996.53;5035900;28;20413;-76
2022/06/22 05:40:30;;;;;;;7.18;4.18;;;;;;;16.17;71.81;101001.13;5039271;28;20057;-75
2022/06/22 05:42:56;;;;;;;7.75;4.45;;;;;;;16.35;71.09;101011.97;5022789;28;20030;-76
2022/06/22 05:45:25;;;;;;;4.95;3.50;;;;;;;16.51;70.78;101015.28;5036684;28;21531;-76
2022/06/22 05:47:53;;;;;;;8.82;4.15;;;;;;;16.73;70.13;101008.22;5021142;28;20116;-76
2022/06/22 05:50:43;;;;;;;9.05;4.47;;;;;;;16.77;68.93;101003.41;5038592;28;20095;-76
2022/06/22 05:53:27;;;;;;;12.07;4.20;;;;;;;16.88;68.25;101008.94;5039067;28;20021;-76
2022/06/22 05:56:15;;;;;;;14.35;5.32;;;;;;;17.04;67.50;101004.38;5040014;28;20482;-76
2022/06/22 05:58:59;;;;;;;8.05;4.30;;;;;;;17.15;67.94;101011.69;5040170;28;20037;-76
2022/06/22 06:01:27;;;;;;;7.38;4.75;;;;;;;17.30;66.77;101011.56;5038041;28;20044;-77
2022/06/22 06:04:04;;;;;;;9.27;4.50;;;;;;;17.63;66.87;101010.88;5038588;28;20071;-76
2022/06/22 06:06:38;;;;;;;12.18;4.63;;;;;;;18.06;65.17;101013.22;5037589;28;20228;-76
2022/06/22 06:09:09;;;;;;;12.05;4.25;;;;;;;18.34;63.80;101007.78;5036536;28;20025;-76
2022/06/22 06:11:46;;;;;;;7.60;3.60;;;;;;;18.53;63.72;101011.41;5037334;28;20044;-76
2022/06/22 06:14:27;;;;;;;7.95;4.03;;;;;;;18.89;62.77;101018.03;5038253;28;20033;-77
2022/06/22 06:16:58;;;;;;;10.70;4.18;;;;;;;19.11;61.75;101015.16;5036525;28;20158;-76
2022/06/22 06:19:30;;;;;;;10.27;3.80;;;;;;;19.34;60.99;101012.03;5035419;28;20040;-76
2022/06/22 06:21:59;;;;;;;9.18;3.90;;;;;;;19.46;60.10;101013.00;5033862;28;20382;-76
2022/06/22 06:24:34;;;;;;;10.98;4.13;;;;;;;19.64;59.48;101009.66;5038638;28;20337;-77
2022/06/22 06:29:57;;;;;;;7.75;3.72;;;;;;;20.11;58.61;101004.94;5045816;28;20124;-76
2022/06/22 06:32:29;;;;;;;;;;;;;;;19.89;58.03;101001.06;5037710;28;20078;-77
2022/06/22 06:35:17;;;;;;;8.05;4.07;;;;;;;20.07;58.11;101009.03;5037761;28;19927;-76
2022/06/22 06:38:23;;;;;;;8.45;4.47;;;;;;;20.19;57.52;101007.31;5052014;28;20049;-76
2022/06/22 06:40:54;;;;;;;8.75;3.83;;;;;;;20.14;57.30;100995.81;5003145;28;20055;-76
2022/06/22 06:43:29;;;;;;;9.55;3.97;;;;;;;20.56;56.58;100990.78;5029886;28;20064;-75
2022/06/22 06:45:56;;;;;;;36.60;15.27;;;;;;;20.92;55.01;100987.41;5034440;28;20131;-76
2022/06/22 06:48:25;;;;;;;13.68;5.68;;;;;;;21.13;53.69;100994.03;5041699;28;20025;-76
2022/06/22 06:50:55;;;;;;;10.57;4.80;;;;;;;21.40;54.39;100985.81;5032870;28;20029;-76
2022/06/22 06:53:41;;;;;;;8.93;4.35;;;;;;;21.38;53.59;100986.03;5042751;28;20091;-76
2022/06/22 06:56:44;;;;;;;9.15;4.00;;;;;;;21.92;52.02;100980.81;5036222;28;20497;-76
2022/06/22 06:59:15;;;;;;;12.17;4.30;;;;;;;22.17;51.10;100974.56;5017919;28;20048;-76
2022/06/22 07:01:44;;;;;;;13.77;5.00;;;;;;;22.65;49.95;100973.53;5035899;28;20099;-76
2022/06/22 07:04:23;;;;;;;14.07;4.35;;;;;;;23.07;49.13;100970.69;5035736;28;20078;-76
2022/06/22 07:06:52;;;;;;;14.57;4.05;;;;;;;23.59;48.08;100985.66;5037956;28;20492;-76
2022/06/22 07:09:30;;;;;;;13.23;4.07;;;;;;;23.97;46.64;100980.75;5038665;28;20029;-76
2022/06/22 07:12:12;;;;;;;12.68;4.18;;;;;;;24.00;46.20;100978.44;5037081;28;20079;-76
2022/06/22 07:14:41;;;;;;;12.02;3.85;;;;;;;24.08;45.57;100970.06;5038518;28;20040;-75
2022/06/22 07:17:10;;;;;;;15.05;4.57;;;;;;;24.18;45.78;100966.78;5039123;28;20603;-77
2022/06/22 07:19:43;;;;;;;17.45;4.90;;;;;;;24.44;45.35;100962.63;5041433;28;20094;-77
2022/06/22 07:22:17;;;;;;;10.35;4.50;;;;;;;24.28;45.84;100964.28;5039976;28;20071;-77
2022/06/22 07:24:57;;;;;;;13.30;4.38;;;;;;;24.39;44.88;100961.75;5035274;28;20120;-77
2022/06/22 07:27:33;;;;;;;12.40;4.85;;;;;;;24.39;44.52;100954.63;5035548;28;20041;-77
2022/06/22 07:30:27;;;;;;;12.57;4.20;;;;;;;24.41;44.57;100959.66;5024841;28;20211;-76
2022/06/22 07:33:06;;;;;;;16.38;4.78;;;;;;;24.67;44.42;100964.28;5037756;28;20703;-76
2022/06/22 07:35:48;;;;;;;16.77;4.20;;;;;;;24.86;43.14;100956.03;5038151;28;20033;-76
2022/06/22 07:38:33;;;;;;;16.98;4.10;;;;;;;25.22;42.92;100953.75;5030206;28;20048;-77
2022/06/22 07:43:45;;;;;;;10.13;3.33;;;;;;;25.41;42.07;100951.56;5036640;28;20033;-76
2022/06/22 07:46:23;;;;;;;18.08;4.47;;;;;;;25.35;41.47;100940.13;5034782;28;20028;-76
2022/06/22 07:48:52;;;;;;;12.95;3.38;;;;;;;25.64;41.48;100942.50;5045924;28;20939;-75
2022/06/22 07:51:27;;;;;;;11.75;3.88;;;;;;;25.88;40.65;100956.25;5036011;28;20137;-78
2022/06/22 07:53:52;;;;;;;11.70;3.30;;;;;;;26.16;40.33;100957.78;5036771;28;21522;-77
2022/06/22 07:56:41;;;;;;;17.65;3.45;;;;;;;26.40;40.00;100965.34;5036759;28;20398;-77
2022/06/22 07:59:16;;;;;;;12.77;3.08;;;;;;;26.69;39.65;100963.13;5032826;28;20326;-77
2022/06/22 08:01:43;;;;;;;7.10;2.25;;;;;;;27.20;39.32;100967.81;5031688;28;20123;-77
2022/06/22 08:04:38;;;;;;;11.35;2.95;;;;;;;27.36;38.86;100958.00;5036888;28;20036;-77
2022/06/22 08:07:21;;;;;;;15.60;4.20;;;;;;;27.11;35.93;100966.72;5017780;28;20048;-78
2022/06/22 08:09:53;;;;;;;13.10;3.53;;;;;;;27.15;37.29;100957.16;5031693;28;20043;-77
2022/06/22 08:12:24;;;;;;;15.43;3.75;;;;;;;27.40;36.92;100960.94;5037282;28;20036;-77
2022/06/22 08:14:53;;;;;;;15.88;4.38;;;;;;;26.95;37.14;100961.34;5033797;28;20575;-77
2022/06/22 08:17:42;;;;;;;14.50;3.50;;;;;;;27.27;37.07;100954.25;5035197;28;20107;-77
2022/06/22 08:20:11;;;;;;;10.68;2.97;;;;;;;27.45;37.49;100950.31;5030438;28;20364;-78
2022/06/22 08:22:37;;;;;;;8.13;3.22;;;;;;;27.74;37.88;100961.22;5022987;28;20033;-77
2022/06/22 08:25:04;;;;;;;10.38;2.90;;;;;;;28.08;36.92;100956.13;5032354;28;20052;-76
2022/06/22 08:27:30;;;;;;;13.35;2.90;;;;;;;28.05;34.28;100964.69;5036047;28;20116;-76
2022/06/22 08:29:57;;;;;;;18.90;4.90;;;;;;;28.27;35.58;100966.22;5031866;28;20037;-77
2022/06/22 08:32:34;;;;;;;11.70;3.85;;;;;;;28.47;34.89;100952.03;5036437;28;20048;-77
2022/06/22 08:35:12;;;;;;;17.23;3.92;;;;;;;27.92;35.18;100963.38;5035774;28;20192;-78
2022/06/22 08:37:44;;;;;;;16.88;3.97;;;;;;;27.52;34.86;100953.47;5036824;28;20041;-77
2022/06/22 08:40:28;;;;;;;11.38;3.35;;;;;;;28.07;35.39;100951.88;5034918;28;20044;-79
2022/06/22 08:42:58;;;;;;;11.90;3.33;;;;;;;28.10;35.28;100956.66;5031858;28;20029;-78
2022/06/22 08:45:42;;;;;;;12.88;3.38;;;;;;;28.52;35.06;100942.19;5036861;28;20356;-77
2022/06/22 08:48:42;;;;;;;6.97;2.30;;;;;;;28.68;33.44;100937.56;5036445;28;20040;-77
2022/06/22 08:51:37;;;;;;;11.45;2.50;;;;;;;28.02;34.02;100940.44;5035580;28;20029;-78
2022/06/22 08:54:20;;;;;;;7.45;2.47;;;;;;;28.12;34.12;100951.06;4971538;28;20221;-78
2022/06/22 08:56:51;;;;;;;7.90;2.20;;;;;;;28.12;34.88;100948.41;5035944;28;20040;-78
2022/06/22 08:59:32;;;;;;;11.20;3.28;;;;;;;28.61;32.97;100958.41;5039769;28;20123;-79
2022/06/22 09:02:19;;;;;;;11.15;2.72;;;;;;;28.51;33.14;100951.22;5040063;28;20293;-78
2022/06/22 09:05:16;;;;;;;10.70;2.28;;;;;;;28.57;33.85;100949.34;5038201;28;20037;-78
2022/06/22 09:08:03;;;;;;;5.47;1.88;;;;;;;28.02;34.19;100956.44;5043890;28;20021;-77
2022/06/22 09:10:45;;;;;;;5.28;1.80;;;;;;;28.31;33.52;100956.59;5044204;28;20033;-78
2022/06/22 09:13:34;;;;;;;9.07;2.50;;;;;;;28.48;33.96;100966.94;5035796;28;20493;-78
2022/06/22 09:16:39;;;;;;;7.57;2.10;;;;;;;28.13;32.73;100969.44;5037389;28;20351;-78
2022/06/22 09:19:33;;;;;;;6.72;1.60;;;;;;;28.31;32.29;100962.75;5034459;28;20599;-77
2022/06/22 09:22:14;;;;;;;4.35;1.65;;;;;;;28.40;34.08;100965.66;5041305;28;20048;-76
2022/06/22 09:24:59;;;;;;;5.50;1.60;;;;;;;28.17;33.57;100969.72;5041233;28;20040;-78
2022/06/22 09:27:48;;;;;;;34.55;3.25;;;;;;;28.81;32.82;100964.72;5036652;28;20036;-77
2022/06/22 09:30:39;;;;;;;7.00;1.70;;;;;;;28.91;33.28;100959.31;5038960;28;20029;-78
2022/06/22 09:33:27;;;;;;;6.32;1.45;;;;;;;28.82;31.77;100960.97;5042533;28;20171;-79
2022/06/22 09:36:23;;;;;;;3.65;1.13;;;;;;;29.00;32.24;100955.00;5033954;28;20036;-79
2022/06/22 09:39:24;;;;;;;3.80;1.38;;;;;;;28.46;31.57;100951.25;5038486;28;20397;-78
2022/06/22 09:42:21;;;;;;;4.80;1.60;;;;;;;28.90;33.32;100949.75;5040574;28;20056;-78
2022/06/22 09:45:15;;;;;;;4.43;1.40;;;;;;;28.93;32.88;100947.31;5039761;28;20549;-78
2022/06/22 09:48:14;;;;;;;3.30;1.35;;;;;;;29.22;32.54;100943.16;5038730;28;20502;-79
2022/06/22 09:50:55;;;;;;;3.63;1.48;;;;;;;29.50;31.93;100942.41;5038348;28;20162;-79
2022/06/22 09:53:48;;;;;;;2.55;1.20;;;;;;;29.41;31.08;100937.97;5037015;28;20033;-77
2022/06/22 09:56:19;;;;;;;6.25;1.48;;;;;;;29.24;30.91;100939.13;5038274;28;20029;-76
2022/06/22 09:59:09;;;;;;;8.40;1.60;;;;;;;28.88;31.37;100934.00;5036529;28;20391;-79
2022/06/22 10:02:10;;;;;;;7.82;1.52;;;;;;;28.66;31.89;100937.03;5038432;28;20393;-77
2022/06/22 10:04:42;;;;;;;2.53;1.25;;;;;;;29.01;32.22;100929.13;5050168;28;20047;-78
2022/06/22 10:07:41;;;;;;;11.68;1.50;;;;;;;29.05;32.30;100930.97;5043657;28;20072;-78
2022/06/22 10:10:19;;;;;;;4.70;1.67;;;;;;;29.24;31.38;100931.13;5035483;28;20500;-78
2022/06/22 10:13:06;;;;;;;5.07;1.55;;;;;;;29.44;31.15;100924.03;5039209;28;20044;-80
2022/06/22 10:15:58;;;;;;;3.20;1.60;;;;;;;29.44;31.49;100924.84;5029572;28;20429;-80
2022/06/22 10:18:35;;;;;;;3.00;1.30;;;;;;;29.64;31.67;100910.50;5052612;28;20409;-77
2022/06/22 10:21:19;;;;;;;4.15;1.40;;;;;;;29.69;31.43;100915.00;5046414;28;20090;-79
2022/06/22 10:23:57;;;;;;;3.22;1.00;;;;;;;29.81;30.59;100911.97;5022608;28;20033;-80
2022/06/22 10:26:47;;;;;;;8.00;1.60;;;;;;;29.56;29.71;100902.31;5038154;28;20585;-78
2022/06/22 10:29:41;;;;;;;3.65;1.17;;;;;;;29.56;31.09;100908.44;5023537;28;20025;-78
2022/06/22 10:32:31;;;;;;;5.78;1.30;;;;;;;29.72;30.81;100902.97;5037807;28;20037;-78
2022/06/22 10:35:12;;;;;;;4.45;1.30;;;;;;;29.86;30.12;100899.38;5034035;28;20421;-79
2022/06/22 10:38:06;;;;;;;6.50;1.95;;;;;;;29.69;30.39;100891.75;5046663;28;20075;-78
2022/06/22 10:46:29;;;;;;;3.45;1.23;;;;;;;30.27;29.91;100885.53;5038003;28;20111;-77
2022/06/22 10:49:15;;;;;;;7.90;1.30;;;;;;;30.52;28.83;100880.97;5039031;28;20531;-78
2022/06/22 10:52:14;;;;;;;3.03;1.33;;;;;;;30.39;29.93;100890.50;5035402;28;20037;-78
2022/06/22 10:54:59;;;;;;;3.53;1.63;;;;;;;29.82;29.67;100886.84;5035206;28;20048;-78
2022/06/22 10:57:33;;;;;;;2.40;1.23;;;;;;;29.88;29.24;100889.19;5034154;28;20040;-78
2022/06/22 11:00:14;;;;;;;6.15;1.40;;;;;;;30.10;29.29;100895.88;5029675;28;20059;-78
2022/06/22 11:02:48;;;;;;;4.20;1.55;;;;;;;30.38;29.78;100901.47;5037540;28;20029;-77
2022/06/22 11:05:40;;;;;;;5.05;1.60;;;;;;;30.47;29.51;100897.09;5035142;28;20090;-79
2022/06/22 11:08:24;;;;;;;6.22;1.80;;;;;;;30.09;29.17;100897.78;5027443;28;20453;-78
2022/06/22 11:11:11;;;;;;;21.33;2.10;;;;;;;29.62;30.86;100904.66;5034585;28;20039;-78
2022/06/22 11:13:49;;;;;;;4.00;1.17;;;;;;;30.02;29.95;100902.66;5036211;28;20033;-79
2022/06/22 11:16:29;;;;;;;12.02;1.75;;;;;;;29.67;30.20;100895.81;5037156;28;20434;-79
2022/06/22 11:19:21;;;;;;;3.42;1.45;;;;;;;29.56;29.95;100905.78;5035233;28;20139;-76
2022/06/22 11:22:35;;;;;;;6.13;1.60;;;;;;;30.08;29.59;100911.41;5034426;28;20037;-78
2022/06/22 11:30:48;;;;;;;3.78;1.40;;;;;;;30.37;28.70;100911.38;5028942;28;20036;-76
2022/06/22 11:31:46;;;;;;;9.32;1.55;;;;;;;29.75;29.26;100911.25;5035338;28;20037;-78
2022/06/22 11:34:14;;;;;;;4.60;1.70;;;;;;;29.55;30.09;100920.19;5047237;28;20094;-77
2022/06/22 11:36:56;;;;;;;9.63;1.40;;;;;;;29.27;29.39;100919.09;5036537;28;20094;-79
2022/06/22 11:39:35;;;;;;;5.15;1.70;;;;;;;29.68;29.92;100916.06;5037967;28;20028;-79
2022/06/22 11:42:04;;;;;;;3.90;1.25;;;;;;;29.72;28.96;100913.66;5033929;28;20039;-78
2022/06/22 11:44:41;;;;;;;3.88;1.50;;;;;;;30.24;28.03;100904.81;5038245;28;20083;-78
2022/06/22 11:47:18;;;;;;;4.97;1.40;;;;;;;30.23;27.96;100913.13;5035740;28;20045;-78
2022/06/22 11:50:14;;;;;;;4.75;1.42;;;;;;;30.07;28.60;100915.97;5037145;28;20143;-78
2022/06/22 11:52:51;;;;;;;4.18;1.50;;;;;;;30.28;28.30;100915.75;5035525;28;20033;-79
2022/06/22 11:55:37;;;;;;;4.25;1.30;;;;;;;30.10;28.42;100911.94;5031789;28;20143;-78
2022/06/22 11:58:47;;;;;;;12.32;3.25;;;;;;;29.74;29.19;100912.31;5036821;28;20398;-77
2022/06/22 12:01:15;;;;;;;6.50;1.92;;;;;;;29.56;28.69;100915.66;5035973;28;20106;-78
2022/06/22 12:04:16;;;;;;;4.60;1.55;;;;;;;29.94;29.61;100913.19;5040652;28;20044;-79
2022/06/22 12:07:12;;;;;;;12.48;2.42;;;;;;;30.26;29.40;100910.69;5017813;28;20045;-78
2022/06/22 12:09:57;;;;;;;3.35;1.38;;;;;;;30.17;28.04;100912.38;5035440;28;20507;-78
2022/06/22 12:12:48;;;;;;;4.50;1.48;;;;;;;30.25;28.37;100911.78;5038791;28;20043;-79
2022/06/22 12:15:32;;;;;;;4.68;1.17;;;;;;;29.95;29.22;100909.44;5036673;28;20043;-77
2022/06/22 12:18:00;;;;;;;4.43;1.48;;;;;;;30.06;27.59;100900.22;5036771;28;20025;-80
2022/06/22 12:20:32;;;;;;;10.27;1.85;;;;;;;29.97;28.19;100907.25;5035061;28;20497;-77
2022/06/22 12:23:37;;;;;;;4.30;1.60;;;;;;;29.60;28.18;100908.69;5037234;28;20060;-77
2022/06/22 12:26:29;;;;;;;10.75;2.10;;;;;;;29.45;28.89;100897.06;5038667;28;20471;-78
2022/06/22 12:29:00;;;;;;;5.30;2.05;;;;;;;29.93;28.48;100891.00;5034495;28;20063;-80
2022/06/22 12:31:35;;;;;;;8.77;1.70;;;;;;;30.10;27.24;100885.19;5037110;28;20037;-78
2022/06/22 12:34:25;;;;;;;4.82;1.55;;;;;;;30.23;28.13;100887.19;5034806;28;20036;-78
2022/06/22 12:36:56;;;;;;;3.03;1.35;;;;;;;29.78;27.46;100891.16;5037966;28;20037;-78